Time;durP1;ratioP1;P1;durP2;ratioP2;P2;SDS_P1;SDS_P2;PMS_P1;PMS_P2;Temp;Humidity;BMP_temperature;BMP_pressure;BME280_temperature;BME280_humidity;BME280_pressure;Samples;Min_cycle;Max_cycle;Signal;HPM_P1;HPM_P2
2022/04/01 07:39:28;;;;;;;;;;;;;;;;;;5138041;27;20283;-57
2022/04/01 07:41:54;;;;;;;;;;;;;;;;;;5110666;28;19912;-57
2022/04/01 07:44:19;;;;;;;;;;;;;;;;;;5126900;28;20310;-59
2022/04/01 07:46:45;;;;;;;;;;;;;;;;;;5121911;28;19912;-59
2022/04/01 07:49:11;;;;;;;;;;;;;;;;;;5105277;28;20327;-59
2022/04/01 07:51:38;;;;;;;;;;;;;;;;;;5126483;28;19912;-57
2022/04/01 07:54:04;;;;;;;;;;;;;;;;;;5109394;28;20406;-56
2022/04/01 07:56:32;;;;;;;;;;;;;;;;;;5116954;28;19908;-58
2022/04/01 07:58:58;;;;;;;;;;;;;;;;;;5129379;28;20401;-59
2022/04/01 08:01:24;;;;;;;;;;;;;;;;;;5129571;28;19912;-59
2022/04/01 08:03:50;;;;;;;;;;;;;;;;;;5127736;28;19936;-55
2022/04/01 08:06:16;;;;;;;;;;;;;;;;;;5113130;28;19916;-57
2022/04/01 08:08:42;;;;;;;;;;;;;;;;;;5129417;28;19933;-58
2022/04/01 08:11:08;;;;;;;;;;;;;;;;;;5129287;28;19912;-58
2022/04/01 08:13:34;;;;;;;;;;;;;;;;;;5129068;28;19907;-62
2022/04/01 08:15:59;;;;;;;;;;;;;;;;;;5129722;28;19916;-59
2022/04/01 08:18:26;;;;;;;;;;;;;;;;;;5129087;28;19916;-59
2022/04/01 08:20:52;;;;;;;;;;;;;;;;;;5128589;28;20514;-59
2022/04/01 08:23:19;;;;;;;;;;;;;;;;;;5128891;28;19912;-59
2022/04/01 08:25:45;;;;;;;;;;;;;;;;;;5128197;28;19911;-57
2022/04/01 08:28:10;;;;;;;;;;;;;;;;;;5129477;28;19908;-62
2022/04/01 08:30:38;;;;;;;;;;;;;;;;;;5128874;28;19908;-59
2022/04/01 08:33:04;;;;;;;;;;;;;;;;;;5129496;28;19908;-53
2022/04/01 08:35:30;;;;;;;;;;;;;;;;;;5128221;28;20431;-60
2022/04/01 08:37:57;;;;;;;;;;;;;;;;;;5128615;28;19973;-61
2022/04/01 08:40:23;;;;;;;;;;;;;;;;;;5128612;28;19912;-60
2022/04/01 08:42:49;;;;;;;;;;;;;;;;;;5128336;28;19960;-59
2022/04/01 08:45:15;;;;;;;;;;;;;;;;;;5128788;28;19916;-61
2022/04/01 08:47:41;;;;;;;;;;;;;;;;;;5127088;28;19911;-56
2022/04/01 08:50:07;;;;;;;;;;;;;;;;;;5119353;28;20269;-59
2022/04/01 08:52:33;;;;;;;;;;;;;;;;;;5114830;28;19949;-60
2022/04/01 08:54:58;;;;;;;;;;;;;;;;;;5113679;28;20257;-55
2022/04/01 08:57:24;;;;;;;;;;;;;;;;;;5111090;28;19915;-53
2022/04/01 08:59:50;;;;;;;;;;;;;;;;;;5103760;28;19920;-55
2022/04/01 09:02:16;;;;;;;;;;;;;;;;;;5107769;28;19908;-55
2022/04/01 09:04:43;;;;;;;;;;;;;;;;;;5113478;28;20340;-55
2022/04/01 09:07:09;;;;;;;;;;;;;;;;;;5115210;28;19916;-56
2022/04/01 09:09:35;;;;;;;;;;;;;;;;;;5114266;28;20030;-60
2022/04/01 09:12:01;;;;;;;;;;;;;;;;;;5115366;28;20419;-54
2022/04/01 09:14:27;;;;;;;;;;;;;;;;;;5106749;28;19922;-55
2022/04/01 09:16:53;;;;;;;;;;;;;;;;;;5111866;28;20478;-55
2022/04/01 09:19:18;;;;;;;;;;;;;;;;;;5113807;28;19916;-55
2022/04/01 09:21:47;;;;;;;;;;;;;;;;;;5114043;28;19947;-53
2022/04/01 09:24:13;;;;;;;;;;;;;;;;;;5113945;28;19961;-54
2022/04/01 09:26:38;;;;;;;;;;;;;;;;;;5113835;28;19917;-55
2022/04/01 09:29:04;;;;;;;;;;;;;;;;;;5111711;28;19916;-54
2022/04/01 09:31:30;;;;;;;;;;;;;;;;;;5104177;28;19964;-58
2022/04/01 09:33:56;;;;;;;4.40;1.40;;;;;;;;;;5108621;28;20354;-57
2022/04/01 09:36:42;;;;;;;4.47;1.75;;;;;;;;;;5113340;28;20395;-63
2022/04/01 09:39:09;;;;;;;2.95;1.90;;;;;;;;;;5113347;28;20145;-64
2022/04/01 09:41:37;;;;;;;5.95;1.77;;;;;;;;;;5113012;28;20421;-63
2022/04/01 09:44:04;;;;;;;4.90;2.42;;;;;;;;;;5113641;28;20023;-60
2022/04/01 09:46:30;;;;;;;4.53;2.67;;;;;;;;;;5113003;28;20028;-61
2022/04/01 09:48:57;;;;;;;4.60;2.70;;;;;;;;;;5112782;28;20091;-61
2022/04/01 09:51:24;;;;;;;4.63;2.38;;;;;;;;;;5113957;28;20411;-61
2022/04/01 09:53:51;;;;;;;4.85;2.83;;;;;;;;;;5113100;28;20028;-60
2022/04/01 09:56:17;;;;;;;4.47;2.88;;;;;;;;;;5113592;28;20042;-61
2022/04/01 09:58:43;;;;;;;4.63;2.58;;;;;;;;;;5094461;28;20024;-61
2022/04/01 10:01:09;;;;;;;8.23;3.33;;;;;;;;;;5112465;28;20035;-62
2022/04/01 10:03:35;;;;;;;4.10;2.88;;;;;;;;;;5112869;28;20019;-61
2022/04/01 10:06:02;;;;;;;4.60;2.70;;;;;;;;;;5112706;28;20024;-64
2022/04/01 10:08:29;;;;;;;5.05;2.88;;;;;;;;;;5113118;28;20080;-62
2022/04/01 10:10:57;;;;;;;3.78;3.08;;;;;;;;;;5112488;28;20020;-60
2022/04/01 10:13:30;;;;;;;5.03;2.72;;;;;;;;;;5113346;28;20488;-60
2022/04/01 10:15:57;;;;;;;4.55;2.72;;;;;;;;;;5112661;28;20110;-60
2022/04/01 10:18:24;;;;;;;5.82;3.13;;;;;;;;;;5107982;28;20043;-60
2022/04/01 10:20:53;;;;;;;5.97;2.88;;;;;;;;;;5108370;28;20058;-58
2022/04/01 10:23:21;;;;;;;5.10;3.10;;;;;;;;;;5113251;28;20027;-60
2022/04/01 10:26:04;;;;;;;6.50;3.03;;;;;;;;;;5112241;28;20110;-60
2022/04/01 10:28:30;;;;;;;4.75;2.90;;;;;;;;;;5112882;28;20020;-60
2022/04/01 10:30:58;;;;;;;6.30;2.95;;;;;;;;;;5111747;28;20426;-60
2022/04/01 10:33:31;;;;;;;4.10;2.70;;;;;;;;;;5113079;28;20024;-59
2022/04/01 10:35:57;;;;;;;4.53;3.15;;;;;;;;;;5112076;28;20024;-58
2022/04/01 10:38:29;;;;;;;4.72;2.78;;;;;;;;;;5101372;28;20149;-60
2022/04/01 10:41:06;;;;;;;5.87;2.77;;;;;;;;;;5091152;28;20601;-60
2022/04/01 10:43:33;;;;;;;3.00;2.35;;;;;;;;;;5089455;28;20726;-58
2022/04/01 10:46:06;;;;;;;6.88;2.55;;;;;;;;;;5093090;28;20114;-59
2022/04/01 10:54:06;;;;;;;7.05;2.97;;;;;;;;;;5075555;28;20027;-60
2022/04/01 10:56:33;;;;;;;6.03;3.47;;;;;;;;;;5112750;28;20027;-62
2022/04/01 10:59:07;;;;;;;3.85;2.50;;;;;;;;;;5111649;28;20031;-62
2022/04/01 11:01:35;;;;;;;7.05;2.78;;;;;;;;;;5074883;28;20127;-61
2022/04/01 11:04:13;;;;;;;15.77;3.13;;;;;;;;;;5102191;28;20032;-60
2022/04/01 11:06:58;;;;;;;6.43;2.22;;;;;;;;;;5092394;28;20377;-61
2022/04/01 11:09:42;;;;;;;6.97;3.03;;;;;;;;;;5092360;28;20028;-60
2022/04/01 11:12:19;;;;;;;5.53;2.15;;;;;;;;;;5092065;28;20107;-61
2022/04/01 11:15:02;;;;;;;6.05;2.60;;;;;;;;;;5108640;28;20028;-59
2022/04/01 11:17:29;;;;;;;6.55;2.72;;;;;;;;;;5084143;28;20032;-60
2022/04/01 11:20:04;;;;;;;3.72;2.55;;;;;;;;;;5090264;28;20107;-60
2022/04/01 11:22:34;;;;;;;4.13;2.55;;;;;;;;;;5092231;28;20530;-60
2022/04/01 11:25:01;;;;;;;3.88;2.97;;;;;;;;;;5099236;28;20027;-60
2022/04/01 11:27:27;;;;;;;4.10;2.20;;;;;;;;;;5091571;28;20525;-61
2022/04/01 11:30:06;;;;;;;6.20;2.45;;;;;;;;;;5089673;28;20028;-60
2022/04/01 11:32:34;;;;;;;8.88;2.88;;;;;;;;;;5090492;28;20035;-60
2022/04/01 11:35:00;;;;;;;17.38;2.40;;;;;;;;;;5098740;28;20026;-60
2022/04/01 11:37:26;;;;;;;3.45;2.42;;;;;;;;;;5110785;28;20476;-60
2022/04/01 11:39:53;;;;;;;4.93;2.35;;;;;;;;;;5110378;28;20464;-61
2022/04/01 11:42:20;;;;;;;4.80;2.40;;;;;;;;;;5104689;28;20410;-60
2022/04/01 11:44:58;;;;;;;7.00;2.75;;;;;;;;;;5090346;28;20142;-62
2022/04/01 11:47:37;;;;;;;7.55;2.25;;;;;;;;;;5082873;28;20028;-61
2022/04/01 11:50:13;;;;;;;6.63;2.88;;;;;;;;;;5081937;28;20050;-61
2022/04/01 11:52:41;;;;;;;7.32;2.60;;;;;;;;;;5089988;28;20031;-60
2022/04/01 11:55:27;;;;;;;9.48;3.08;;;;;;;;;;5087904;28;20027;-62
2022/04/01 11:57:54;;;;;;;5.50;3.92;;;;;;;;;;5090215;28;20032;-62
2022/04/01 12:00:21;;;;;;;4.07;2.70;;;;;;;;;;5090363;28;20081;-62
2022/04/01 12:02:48;;;;;;;6.93;2.53;;;;;;;;;;5089756;28;20051;-47
2022/04/01 12:05:15;;;;;;;3.83;2.55;;;;;;;;;;5103975;28;20103;-50
2022/04/01 12:10:27;;;;;;;6.15;2.85;;;;;;;;;;5070078;28;20401;-51
2022/04/01 12:12:58;;;;;;;5.07;2.70;;;;;;;;;;5069490;28;20466;-46
2022/04/01 12:15:38;;;;;;;5.88;2.47;;;;;;;;;;5101846;28;20028;-46
2022/04/01 12:18:07;;;;;;;3.38;1.95;;;;;;;;;;5087456;28;20054;-49
2022/04/01 12:20:38;;;;;;;6.28;2.88;;;;;;;;;;5089748;28;20038;-47
2022/04/01 12:23:05;;;;;;;5.03;2.43;;;;;;;;;;5093981;28;20030;-50
2022/04/01 12:25:31;;;;;;;4.45;2.20;;;;;;;;;;5092566;28;20251;-45
2022/04/01 12:28:02;;;;;;;4.60;2.40;;;;;;;;;;5093707;28;20032;-47
2022/04/01 12:30:32;;;;;;;4.22;2.00;;;;;;;;;;5093968;28;20105;-45
2022/04/01 12:33:00;;;;;;;4.50;2.75;;;;;;;;;;5097633;28;20107;-47
2022/04/01 12:35:27;;;;;;;5.15;2.40;;;;;;;;;;5114177;28;20477;-50
2022/04/01 12:38:07;;;;;;;3.95;2.40;;;;;;;;;;5112484;28;20047;-53
2022/04/01 12:40:34;;;;;;;4.53;1.90;;;;;;;;;;5114221;28;20114;-53
2022/04/01 12:43:01;;;;;;;3.50;2.20;;;;;;;;;;5095439;28;20097;-55
2022/04/01 12:45:27;;;;;;;3.53;2.25;;;;;;;;;;5084417;28;20081;-50
2022/04/01 12:47:53;;;;;;;5.38;2.03;;;;;;;;;;5075222;28;20028;-58
2022/04/01 12:50:35;;;;;;;6.22;2.00;;;;;;;;;;5073635;28;20033;-57
2022/04/01 12:53:15;;;;;;;2.67;2.20;;;;;;;;;;5076639;28;20483;-55
2022/04/01 12:55:41;;;;;;;2.95;1.98;;;;;;;;;;5092937;28;20028;-49
2022/04/01 12:58:12;;;;;;;6.93;2.13;;;;;;;;;;5090558;28;20035;-57
2022/04/01 13:00:39;;;;;;;4.35;1.95;;;;;;;;;;5072906;28;20105;-52
2022/04/01 13:03:05;;;;;;;4.45;1.85;;;;;;;;;;5103225;28;20036;-50
2022/04/01 13:05:31;;;;;;;2.95;2.05;;;;;;;;;;5073438;28;20031;-47
2022/04/01 13:07:58;;;;;;;7.22;1.77;;;;;;;;;;5072427;28;20374;-49
2022/04/01 13:10:24;;;;;;;2.50;1.70;;;;;;;;;;5055055;28;20028;-50
2022/04/01 13:12:55;;;;;;;3.47;1.80;;;;;;;;;;5072915;28;20025;-54
2022/04/01 13:15:27;;;;;;;6.07;1.92;;;;;;;;;;5104300;28;20088;-52
2022/04/01 13:17:54;;;;;;;2.95;1.88;;;;;;;;;;5113830;28;20046;-55
2022/04/01 13:20:25;;;;;;;3.13;1.85;;;;;;;;;;5113336;28;20464;-51
2022/04/01 13:22:52;;;;;;;2.90;1.80;;;;;;;;;;5110609;28;20035;-53
2022/04/01 13:25:18;;;;;;;5.68;2.22;;;;;;;;;;5093098;28;20058;-49
2022/04/01 13:27:45;;;;;;;5.10;1.80;;;;;;;;;;5075744;28;20028;-50
2022/04/01 13:30:12;;;;;;;4.32;1.77;;;;;;;;;;5072752;28;20032;-53
2022/04/01 13:32:38;;;;;;;3.75;1.80;;;;;;;;;;5072263;28;20036;-51
2022/04/01 13:35:05;;;;;;;5.05;1.80;;;;;;;;;;5107059;28;20046;-48
2022/04/01 13:37:31;;;;;;;3.28;2.08;;;;;;;;;;5112555;28;20051;-49
2022/04/01 13:39:58;;;;;;;8.30;1.77;;;;;;;;;;5109117;28;20058;-53
2022/04/01 13:42:25;;;;;;;3.67;1.95;;;;;;;;;;5079494;28;20032;-50
2022/04/01 13:44:52;;;;;;;6.43;1.83;;;;;;;;;;5078763;28;20035;-49
2022/04/01 13:47:19;;;;;;;7.18;1.80;;;;;;;;;;5077607;28;20038;-45
2022/04/01 13:49:45;;;;;;;6.55;1.92;;;;;;;;;;5077717;28;20024;-52
2022/04/01 13:52:11;;;;;;;2.78;1.88;;;;;;;;;;5060411;28;20052;-44
2022/04/01 13:54:39;;;;;;;3.03;1.40;;;;;;;;;;5078209;28;20046;-49
2022/04/01 13:57:05;;;;;;;4.45;1.70;;;;;;;;;;5078390;28;20028;-47
2022/04/01 13:59:31;;;;;;;3.67;1.55;;;;;;;;;;5079601;28;20813;-49
2022/04/01 14:01:57;;;;;;;4.30;1.65;;;;;;;;;;5082186;28;20023;-50
2022/04/01 14:04:24;;;;;;;4.60;1.90;;;;;;;;;;5079493;28;20020;-49
2022/04/01 14:06:50;;;;;;;6.07;2.03;;;;;;;;;;5076983;28;20461;-49
2022/04/01 14:09:18;;;;;;;4.75;1.80;;;;;;;;;;5070924;28;20051;-50
2022/04/01 14:11:45;;;;;;;2.85;1.40;;;;;;;;;;5070298;28;20529;-47
2022/04/01 14:14:11;;;;;;;4.32;1.73;;;;;;;;;;5079694;28;20145;-49
2022/04/01 14:16:39;;;;;;;2.15;1.80;;;;;;;;;;5083862;28;20095;-52
2022/04/01 14:19:06;;;;;;;2.17;1.52;;;;;;;;;;5104440;28;20034;-48
2022/04/01 14:21:33;;;;;;;3.78;1.80;;;;;;;;;;5112401;28;20026;-53
2022/04/01 14:23:59;;;;;;;3.88;1.58;;;;;;;;;;5074274;28;20021;-55
2022/04/01 14:26:26;;;;;;;2.88;1.40;;;;;;;;;;5072968;28;20101;-50
2022/04/01 14:28:52;;;;;;;3.05;1.35;;;;;;;;;;5073530;28;20039;-54
2022/04/01 14:31:19;;;;;;;3.20;1.70;;;;;;;;;;5099126;28;20028;-52
2022/04/01 14:33:46;;;;;;;1.77;1.45;;;;;;;;;;5087607;28;20365;-56
2022/04/01 14:36:12;;;;;;;3.55;1.38;;;;;;;;;;5091614;28;20032;-53
2022/04/01 14:38:38;;;;;;;1.90;1.50;;;;;;;;;;5103943;28;20488;-54
2022/04/01 14:41:04;;;;;;;2.78;1.55;;;;;;;;;;5111215;28;20502;-46
2022/04/01 14:43:30;;;;;;;6.72;2.13;;;;;;;;;;5111383;28;20032;-50
2022/04/01 14:45:56;;;;;;;6.53;1.80;;;;;;;;;;5110922;28;20023;-54
2022/04/01 14:48:22;;;;;;;2.42;1.40;;;;;;;;;;5110591;28;20038;-57
2022/04/01 14:50:49;;;;;;;4.85;1.77;;;;;;;;;;5110826;28;20039;-51
2022/04/01 14:53:17;;;;;;;3.28;1.73;;;;;;;;;;5111702;28;20031;-51
2022/04/01 14:55:43;;;;;;;8.57;1.50;;;;;;;;;;5110630;28;20130;-52
2022/04/01 14:58:09;;;;;;;2.85;1.58;;;;;;;;;;5109648;28;20540;-52
2022/04/01 15:00:35;;;;;;;2.10;1.80;;;;;;;;;;5111672;28;20028;-49
2022/04/01 15:03:01;;;;;;;3.35;1.75;;;;;;;;;;5110719;28;20055;-58
2022/04/01 15:05:28;;;;;;;3.17;1.90;;;;;;;;;;5111840;28;20035;-51
2022/04/01 15:07:55;;;;;;;6.72;2.38;;;;;;;;;;5110940;28;20484;-53
2022/04/01 15:10:21;;;;;;;4.63;2.03;;;;;;;;;;5111321;28;20035;-54
2022/04/01 15:12:49;;;;;;;2.22;1.67;;;;;;;;;;5092351;28;20029;-55
2022/04/01 15:15:16;;;;;;;3.75;2.08;;;;;;;;;;5111701;28;20039;-48
2022/04/01 15:17:42;;;;;;;5.32;1.30;;;;;;;;;;5110534;28;20156;-57
2022/04/01 15:20:10;;;;;;;1.95;1.30;;;;;;;;;;5110752;28;20043;-51
2022/04/01 15:22:37;;;;;;;2.33;1.70;;;;;;;;;;5111562;28;20494;-52
2022/04/01 15:25:04;;;;;;;2.53;1.50;;;;;;;;;;5110765;28;20028;-51
2022/04/01 15:27:30;;;;;;;5.18;1.90;;;;;;;;;;5110968;28;20081;-51
2022/04/01 15:29:57;;;;;;;2.97;1.70;;;;;;;;;;5110405;28;20030;-53
2022/04/01 15:32:24;;;;;;;2.75;1.80;;;;;;;;;;5111444;28;20561;-47
2022/04/01 15:34:51;;;;;;;3.33;1.65;;;;;;;;;;5109657;28;20028;-50
2022/04/01 15:37:22;;;;;;;2.08;1.65;;;;;;;;;;5110169;28;20055;-49
2022/04/01 15:39:48;;;;;;;;;;;;;;;;;;5108012;28;20039;-49
2022/04/01 15:42:15;;;;;;;2.65;2.10;;;;;;;;;;5110932;28;19946;-50
2022/04/01 15:44:42;;;;;;;2.80;1.30;;;;;;;;;;5109882;28;20024;-50
2022/04/01 15:47:08;;;;;;;3.70;1.85;;;;;;;;;;5108548;28;20022;-52
2022/04/01 15:49:35;;;;;;;4.35;1.75;;;;;;;;;;5109717;28;20047;-48
2022/04/01 15:52:01;;;;;;;2.03;1.40;;;;;;;;;;5109400;28;20084;-52
2022/04/01 15:54:27;;;;;;;5.28;1.85;;;;;;;;;;5110116;28;20027;-59
2022/04/01 15:56:55;;;;;;;5.57;2.00;;;;;;;;;;5109979;28;20094;-52
2022/04/01 15:59:21;;;;;;;1.60;1.30;;;;;;;;;;5111026;28;20125;-50
2022/04/01 16:01:47;;;;;;;7.18;1.90;;;;;;;;;;5113386;28;20016;-51
2022/04/01 16:04:15;;;;;;;1.90;1.67;;;;;;;;;;5113781;28;20098;-51
2022/04/01 16:06:42;;;;;;;3.65;1.67;;;;;;;;;;5114035;28;20020;-52
2022/04/01 16:09:08;;;;;;;5.40;2.20;;;;;;;;;;5114700;28;20051;-52
2022/04/01 16:11:37;;;;;;;2.72;1.77;;;;;;;;;;5115639;28;20389;-52
2022/04/01 16:14:07;;;;;;;3.25;1.88;;;;;;;;;;5114398;28;20023;-50
2022/04/01 16:16:34;;;;;;;3.08;2.22;;;;;;;;;;5114870;28;20381;-46
2022/04/01 16:19:04;;;;;;;2.80;1.92;;;;;;;;;;5113530;28;20034;-47
2022/04/01 16:21:31;;;;;;;2.20;1.80;;;;;;;;;;5110998;28;20023;-49
2022/04/01 16:23:58;;;;;;;2.58;1.63;;;;;;;;;;5113760;28;20024;-50
2022/04/01 16:26:24;;;;;;;2.60;2.03;;;;;;;;;;5114075;28;20016;-49
2022/04/01 16:28:50;;;;;;;2.10;1.90;;;;;;;;;;5113252;28;20392;-48
2022/04/01 16:31:16;;;;;;;3.30;2.00;;;;;;;;;;5113926;28;20023;-54
2022/04/01 16:33:42;;;;;;;3.22;1.70;;;;;;;;;;5113293;28;20023;-49
2022/04/01 16:36:08;;;;;;;2.42;1.92;;;;;;;;;;5113928;28;20114;-49
2022/04/01 16:38:34;;;;;;;3.65;1.92;;;;;;;;;;5113880;28;20040;-52
2022/04/01 16:41:00;;;;;;;2.28;1.55;;;;;;;;;;5113923;28;20468;-52
2022/04/01 16:43:26;;;;;;;2.80;2.00;;;;;;;;;;5114323;28;20059;-53
2022/04/01 16:45:54;;;;;;;2.83;1.90;;;;;;;;;;5113484;28;20050;-50
2022/04/01 16:48:19;;;;;;;2.17;1.88;;;;;;;;;;5114453;28;20027;-50
2022/04/01 16:50:46;;;;;;;1.92;1.55;;;;;;;;;;5112911;28;20023;-54
2022/04/01 16:53:12;;;;;;;2.65;2.45;;;;;;;;;;5114378;28;20499;-51
2022/04/01 16:55:38;;;;;;;1.85;1.60;;;;;;;;;;5113758;28;20023;-55
2022/04/01 16:58:04;;;;;;;2.25;1.80;;;;;;;;;;5113634;28;20032;-53
2022/04/01 17:00:30;;;;;;;2.13;1.75;;;;;;;;;;5114225;28;20032;-53
2022/04/01 17:02:56;;;;;;;3.10;1.60;;;;;;;;;;5113080;28;20032;-51
2022/04/01 17:05:22;;;;;;;2.17;1.70;;;;;;;;;;5114104;28;20027;-49
2022/04/01 17:13:04;;;;;;;;;;;;;;;;;;5113522;28;20024;-50
2022/04/01 17:15:31;;;;;;;3.05;2.28;;;;;;;;;;5113446;28;19952;-52
2022/04/01 17:17:58;;;;;;;2.13;1.73;;;;;;;;;;5112906;28;20023;-52
2022/04/01 17:20:25;;;;;;;2.60;1.80;;;;;;;;;;5113823;28;20023;-49
2022/04/01 17:22:53;;;;;;;2.83;2.08;;;;;;;;;;5112008;28;20542;-50
2022/04/01 17:25:20;;;;;;;2.65;2.15;;;;;;;;;;5113447;28;20028;-48
2022/04/01 17:27:46;;;;;;;5.07;2.20;;;;;;;;;;5112481;28;20024;-52
2022/04/01 17:30:14;;;;;;;3.00;2.30;;;;;;;;;;5113546;28;20035;-52
2022/04/01 17:32:42;;;;;;;2.33;2.13;;;;;;;;;;5113231;28;20023;-51
2022/04/01 17:35:16;;;;;;;2.35;2.13;;;;;;;;;;5113312;28;20241;-49
2022/04/01 17:37:43;;;;;;;4.47;3.00;;;;;;;;;;5112359;28;20056;-52
2022/04/01 17:40:11;;;;;;;2.20;2.00;;;;;;;;;;5112827;28;20023;-53
2022/04/01 17:42:37;;;;;;;7.05;2.30;;;;;;;;;;5112908;28;20546;-48
2022/04/01 17:45:03;;;;;;;2.47;2.20;;;;;;;;;;5112788;28;20023;-50
2022/04/01 17:47:30;;;;;;;7.47;2.20;;;;;;;;;;5094486;28;20020;-49
2022/04/01 17:49:56;;;;;;;5.55;1.98;;;;;;;;;;5112198;28;20132;-49
2022/04/01 17:52:23;;;;;;;10.38;2.20;;;;;;;;;;5113093;28;20116;-47
2022/04/01 17:54:50;;;;;;;6.10;2.65;;;;;;;;;;5112261;28;20173;-48
2022/04/01 17:57:18;;;;;;;2.92;2.20;;;;;;;;;;5111650;28;20532;-49
2022/04/01 17:59:48;;;;;;;2.63;2.10;;;;;;;;;;5111722;28;20092;-49
2022/04/01 18:02:15;;;;;;;2.70;2.00;;;;;;;;;;5094070;28;20028;-51
2022/04/01 18:04:41;;;;;;;6.18;2.50;;;;;;;;;;5114114;28;20346;-50
2022/04/01 18:07:07;;;;;;;4.80;2.30;;;;;;;;;;5112224;28;20085;-49
2022/04/01 18:09:35;;;;;;;5.28;2.22;;;;;;;;;;5113025;28;20039;-49
2022/04/01 18:12:03;;;;;;;2.92;1.90;;;;;;;;;;5093942;28;20024;-46
2022/04/01 18:14:32;;;;;;;2.88;2.10;;;;;;;;;;5113032;28;20023;-47
2022/04/01 18:16:59;;;;;;;2.50;2.15;;;;;;;;;;5111420;28;20449;-47
2022/04/01 18:19:26;;;;;;;2.80;2.20;;;;;;;;;;5112597;28;20085;-47
2022/04/01 18:21:52;;;;;;;4.35;2.10;;;;;;;;;;5110096;28;20066;-47
2022/04/01 18:24:18;;;;;;;2.97;2.10;;;;;;;;;;5112124;28;20456;-51
2022/04/01 18:26:50;;;;;;;5.70;2.20;;;;;;;;;;5110891;28;20476;-58
2022/04/01 18:29:16;;;;;;;;;;;;;;;;;;5110225;28;20026;-57
2022/04/01 18:31:45;;;;;;;4.55;2.40;;;;;;;;;;5110608;28;19908;-57
2022/04/01 18:34:13;;;;;;;3.97;1.70;;;;;;;;;;5093556;28;20046;-56
2022/04/01 18:36:40;;;;;;;2.85;2.05;;;;;;;;;;5111377;28;20023;-57
2022/04/01 18:39:09;;;;;;;4.90;1.90;;;;;;;;;;5111111;28;20050;-56
2022/04/01 18:41:38;;;;;;;2.10;1.90;;;;;;;;;;5111282;28;20038;-54
2022/04/01 18:44:05;;;;;;;2.60;1.92;;;;;;;;;;5110933;28;20030;-56
2022/04/01 18:46:32;;;;;;;5.38;2.20;;;;;;;;;;5111401;28;20020;-52
2022/04/01 18:48:58;;;;;;;3.15;2.17;;;;;;;;;;5110724;28;20047;-50
2022/04/01 18:51:25;;;;;;;3.67;2.05;;;;;;;;;;5111678;28;20020;-53
2022/04/01 18:53:52;;;;;;;3.95;2.05;;;;;;;;;;5110338;28;20026;-50
2022/04/01 18:56:18;;;;;;;5.40;2.03;;;;;;;;;;5111891;28;20020;-55
2022/04/01 18:58:46;;;;;;;6.47;2.75;;;;;;;;;;5110562;28;20032;-57
2022/04/01 19:01:15;;;;;;;6.82;2.08;;;;;;;;;;5110964;28;20024;-54
2022/04/01 19:03:42;;;;;;;8.27;2.42;;;;;;;;;;5109711;28;20038;-57
2022/04/01 19:06:08;;;;;;;11.32;2.08;;;;;;;;;;5109543;28;20066;-53
2022/04/01 19:08:43;;;;;;;4.45;2.03;;;;;;;;;;5110155;28;20059;-55
2022/04/01 19:11:18;;;;;;;4.18;1.95;;;;;;;;;;5110802;28;20019;-55
2022/04/01 19:13:45;;;;;;;6.45;1.80;;;;;;;;;;5109114;28;20055;-51
2022/04/01 19:16:13;;;;;;;4.05;2.28;;;;;;;;;;5110258;28;20100;-53
2022/04/01 19:18:44;;;;;;;8.68;2.55;;;;;;;;;;5110178;28;20042;-54
2022/04/01 19:21:14;;;;;;;4.32;2.13;;;;;;;;;;5110526;28;20492;-52
2022/04/01 19:23:40;;;;;;;6.40;2.50;;;;;;;;;;5110666;28;20103;-56
2022/04/01 19:26:08;;;;;;;7.63;2.30;;;;;;;;;;5110248;28;20095;-49
2022/04/01 19:28:34;;;;;;;4.97;2.08;;;;;;;;;;5110314;28;20099;-56
2022/04/01 19:31:00;;;;;;;6.53;3.28;;;;;;;;;;5109426;28;20837;-57
2022/04/01 19:33:26;;;;;;;3.25;1.95;;;;;;;;;;5110017;28;20099;-50
2022/04/01 19:35:53;;;;;;;7.25;2.00;;;;;;;;;;5109443;28;20022;-51
2022/04/01 19:38:19;;;;;;;3.03;1.83;;;;;;;;;;5110099;28;20155;-49
2022/04/01 19:40:45;;;;;;;7.68;2.35;;;;;;;;;;5091650;28;20031;-49
2022/04/01 19:43:13;;;;;;;12.88;2.50;;;;;;;;;;5110661;28;20024;-49
2022/04/01 19:45:39;;;;;;;4.13;2.08;;;;;;;;;;5110687;28;20022;-53
2022/04/01 19:48:05;;;;;;;7.07;2.35;;;;;;;;;;5109895;28;20038;-55
2022/04/01 19:50:31;;;;;;;5.50;2.40;;;;;;;;;;5111219;28;20039;-50
2022/04/01 19:52:58;;;;;;;4.07;2.30;;;;;;;;;;5109854;28;20023;-52
2022/04/01 19:55:24;;;;;;;5.05;1.90;;;;;;;;;;5110464;28;20032;-53
2022/04/01 19:57:50;;;;;;;4.43;2.17;;;;;;;;;;5109671;28;20038;-52
2022/04/01 20:00:17;;;;;;;5.90;2.17;;;;;;;;;;5110737;28;20020;-50
2022/04/01 20:02:43;;;;;;;4.43;2.38;;;;;;;;;;5109633;28;20034;-53
2022/04/01 20:05:10;;;;;;;4.35;2.00;;;;;;;;;;5109806;28;20053;-51
2022/04/01 20:07:36;;;;;;;3.55;1.77;;;;;;;;;;5109620;28;20032;-50
2022/04/01 20:10:03;;;;;;;2.75;1.73;;;;;;;;;;5110357;28;20868;-49
2022/04/01 20:12:29;;;;;;;3.35;1.98;;;;;;;;;;5110321;28;20473;-52
2022/04/01 20:14:56;;;;;;;4.55;1.90;;;;;;;;;;5109461;28;20491;-49
2022/04/01 20:17:21;;;;;;;2.65;2.08;;;;;;;;;;5110535;28;20059;-51
2022/04/01 20:19:47;;;;;;;2.00;1.80;;;;;;;;;;5109690;28;20069;-48
2022/04/01 20:22:13;;;;;;;2.95;1.73;;;;;;;;;;5110799;28;20020;-49
2022/04/01 20:24:39;;;;;;;3.80;2.33;;;;;;;;;;5110874;28;20384;-54
2022/04/01 20:27:06;;;;;;;3.35;2.00;;;;;;;;;;5110610;28;20027;-50
2022/04/01 20:29:32;;;;;;;2.22;2.03;;;;;;;;;;5110485;28;20085;-50
2022/04/01 20:31:58;;;;;;;3.25;1.88;;;;;;;;;;5109557;28;20016;-49
2022/04/01 20:34:24;;;;;;;3.90;1.77;;;;;;;;;;5109951;28;20434;-52
2022/04/01 20:36:50;;;;;;;3.08;2.05;;;;;;;;;;5090758;28;20087;-49
2022/04/01 20:39:16;;;;;;;3.88;2.35;;;;;;;;;;5110031;28;20048;-51
2022/04/01 20:41:43;;;;;;;2.53;1.77;;;;;;;;;;5109249;28;20031;-54
2022/04/01 20:44:10;;;;;;;2.30;1.73;;;;;;;;;;5110518;28;20089;-51
2022/04/01 20:46:36;;;;;;;2.88;2.53;;;;;;;;;;5112766;28;20022;-49
2022/04/01 20:49:02;;;;;;;3.03;2.00;;;;;;;;;;5111993;28;20052;-51
2022/04/01 20:51:28;;;;;;;3.20;2.25;;;;;;;;;;5110837;28;20033;-52
2022/04/01 20:53:55;;;;;;;2.78;2.08;;;;;;;;;;5113210;28;20148;-50
2022/04/01 20:56:21;;;;;;;3.63;2.10;;;;;;;;;;5113539;28;20028;-52
2022/04/01 20:58:47;;;;;;;3.97;2.13;;;;;;;;;;5112858;28;20468;-55
2022/04/01 21:01:14;;;;;;;4.57;2.35;;;;;;;;;;5113601;28;20030;-54
2022/04/01 21:03:40;;;;;;;3.92;2.10;;;;;;;;;;5113356;28;20015;-56
2022/04/01 21:06:06;;;;;;;4.25;2.40;;;;;;;;;;5113240;28;20023;-54
2022/04/01 21:08:32;;;;;;;2.20;1.75;;;;;;;;;;5112818;28;20039;-54
2022/04/01 21:10:58;;;;;;;3.15;2.00;;;;;;;;;;5112202;28;20031;-53
2022/04/01 21:13:24;;;;;;;2.17;1.77;;;;;;;;;;5114606;28;20493;-49
2022/04/01 21:15:50;;;;;;;2.80;2.20;;;;;;;;;;5112889;28;20032;-49
2022/04/01 21:18:17;;;;;;;2.75;2.10;;;;;;;;;;5113079;28;20546;-49
2022/04/01 21:20:43;;;;;;;5.55;1.95;;;;;;;;;;5093840;28;20027;-49
2022/04/01 21:23:09;;;;;;;3.03;1.90;;;;;;;;;;5112979;28;20019;-50
2022/04/01 21:28:22;;;;;;;3.92;2.10;;;;;;;;;;5112305;28;20085;-50
2022/04/01 21:30:49;;;;;;;2.90;2.30;;;;;;;;;;5108762;28;20019;-50
2022/04/01 21:33:15;;;;;;;2.33;1.77;;;;;;;;;;5112975;28;20020;-50
2022/04/01 21:35:41;;;;;;;2.05;1.85;;;;;;;;;;5113365;28;20015;-55
2022/04/01 21:38:07;;;;;;;3.20;1.92;;;;;;;;;;5114390;28;20152;-51
2022/04/01 21:40:35;;;;;;;2.30;2.10;;;;;;;;;;5113533;28;20028;-52
2022/04/01 21:43:02;;;;;;;2.70;1.88;;;;;;;;;;5113319;28;20027;-50
2022/04/01 21:45:28;;;;;;;3.13;1.92;;;;;;;;;;5114241;28;20060;-49
2022/04/01 21:47:54;;;;;;;2.75;1.70;;;;;;;;;;5113869;28;20059;-51
2022/04/01 21:50:20;;;;;;;3.92;1.95;;;;;;;;;;5113849;28;20102;-49
2022/04/01 21:52:46;;;;;;;3.08;2.05;;;;;;;;;;5113228;28;20106;-53
2022/04/01 21:55:12;;;;;;;3.95;2.63;;;;;;;;;;5113873;28;20054;-54
2022/04/01 21:57:38;;;;;;;2.80;2.25;;;;;;;;;;5113935;28;20028;-54
2022/04/01 22:00:12;;;;;;;3.65;1.92;;;;;;;;;;5113171;28;20027;-50
2022/04/01 22:02:38;;;;;;;2.65;2.00;;;;;;;;;;5114083;28;20035;-54
2022/04/01 22:05:04;;;;;;;2.40;1.80;;;;;;;;;;5113422;28;20156;-52
2022/04/01 22:07:30;;;;;;;2.35;1.52;;;;;;;;;;5094641;28;20035;-54
2022/04/01 22:09:56;;;;;;;2.13;1.52;;;;;;;;;;5113095;28;20068;-49
2022/04/01 22:12:22;;;;;;;2.55;2.22;;;;;;;;;;5113295;28;20103;-51
2022/04/01 22:14:49;;;;;;;3.35;1.70;;;;;;;;;;5112685;28;20024;-50
2022/04/01 22:17:16;;;;;;;2.20;1.88;;;;;;;;;;5113809;28;20483;-51
2022/04/01 22:19:42;;;;;;;2.35;2.08;;;;;;;;;;5112741;28;20486;-55
2022/04/01 22:22:08;;;;;;;8.48;2.70;;;;;;;;;;5113057;28;20102;-49
2022/04/01 22:24:34;;;;;;;2.45;1.52;;;;;;;;;;5113310;28;20081;-51
2022/04/01 22:27:00;;;;;;;2.67;1.92;;;;;;;;;;5112729;28;20019;-52
2022/04/01 22:29:26;;;;;;;3.30;2.00;;;;;;;;;;5113132;28;20392;-49
2022/04/01 22:31:52;;;;;;;2.25;1.80;;;;;;;;;;5112297;28;20034;-49
2022/04/01 22:34:18;;;;;;;3.58;1.73;;;;;;;;;;5113066;28;20024;-52
2022/04/01 22:36:44;;;;;;;1.75;1.63;;;;;;;;;;5112155;28;20047;-56
2022/04/01 22:39:10;;;;;;;2.03;1.73;;;;;;;;;;5113019;28;20075;-53
2022/04/01 22:41:36;;;;;;;1.88;1.48;;;;;;;;;;5112918;28;20422;-51
2022/04/01 22:44:02;;;;;;;3.50;1.90;;;;;;;;;;5112458;28;20019;-53
2022/04/01 22:46:28;;;;;;;3.25;2.25;;;;;;;;;;5112778;28;20465;-50
2022/04/01 22:48:54;;;;;;;2.83;1.83;;;;;;;;;;5112001;28;20023;-50
2022/04/01 22:54:05;;;;;;;2.10;1.73;;;;;;;;;;5107143;28;20019;-49
2022/04/01 22:56:31;;;;;;;2.17;1.70;;;;;;;;;;5110992;28;20042;-53